sensor_id;sensor_type;location;lat;lon;timestamp;temperature;humidity
2012;DHT22;1009;51.436;6.972;2023-11-18T00:00:49;5.10;99.90
2012;DHT22;1009;51.436;6.972;2023-11-18T00:03:16;5.20;99.90
2012;DHT22;1009;51.436;6.972;2023-11-18T00:05:43;5.20;99.90
2012;DHT22;1009;51.436;6.972;2023-11-18T00:08:09;5.30;99.90
2012;DHT22;1009;51.436;6.972;2023-11-18T00:10:36;5.20;99.90
2012;DHT22;1009;51.436;6.972;2023-11-18T00:13:04;5.20;99.90
2012;DHT22;1009;51.436;6.972;2023-11-18T00:15:31;5.20;99.90
2012;DHT22;1009;51.436;6.972;2023-11-18T00:18:00;5.20;99.90
2012;DHT22;1009;51.436;6.972;2023-11-18T00:20:27;5.20;99.90
2012;DHT22;1009;51.436;6.972;2023-11-18T00:22:56;5.20;99.90
2012;DHT22;1009;51.436;6.972;2023-11-18T00:25:23;5.20;99.90
2012;DHT22;1009;51.436;6.972;2023-11-18T00:27:50;5.20;99.90
2012;DHT22;1009;51.436;6.972;2023-11-18T00:30:18;5.20;99.90
2012;DHT22;1009;51.436;6.972;2023-11-18T00:32:45;5.10;99.90
2012;DHT22;1009;51.436;6.972;2023-11-18T00:35:12;5.10;99.90
2012;DHT22;1009;51.436;6.972;2023-11-18T00:37:38;5.10;99.90
2012;DHT22;1009;51.436;6.972;2023-11-18T00:40:06;5.10;99.90
2012;DHT22;1009;51.436;6.972;2023-11-18T00:42:34;5.10;99.90
2012;DHT22;1009;51.436;6.972;2023-11-18T00:45:01;5.10;99.90
2012;DHT22;1009;51.436;6.972;2023-11-18T00:47:31;5.00;99.90
2012;DHT22;1009;51.436;6.972;2023-11-18T00:49:57;5.00;99.90
2012;DHT22;1009;51.436;6.972;2023-11-18T00:52:27;5.00;99.90
2012;DHT22;1009;51.436;6.972;2023-11-18T00:54:55;5.00;99.90
2012;DHT22;1009;51.436;6.972;2023-11-18T00:57:29;5.00;99.90
2012;DHT22;1009;51.436;6.972;2023-11-18T00:59:57;4.90;99.90
2012;DHT22;1009;51.436;6.972;2023-11-18T01:02:27;4.90;99.90
2012;DHT22;1009;51.436;6.972;2023-11-18T01:04:59;4.90;99.90
2012;DHT22;1009;51.436;6.972;2023-11-18T01:07:26;5.00;99.90
2012;DHT22;1009;51.436;6.972;2023-11-18T01:09:53;5.00;99.90
2012;DHT22;1009;51.436;6.972;2023-11-18T01:12:28;5.00;99.90
2012;DHT22;1009;51.436;6.972;2023-11-18T01:15:00;5.00;99.90
2012;DHT22;1009;51.436;6.972;2023-11-18T01:17:34;5.00;99.90
2012;DHT22;1009;51.436;6.972;2023-11-18T01:20:11;5.10;99.90
2012;DHT22;1009;51.436;6.972;2023-11-18T01:22:44;5.10;99.90
2012;DHT22;1009;51.436;6.972;2023-11-18T01:25:16;5.00;99.90
2012;DHT22;1009;51.436;6.972;2023-11-18T01:27:48;5.10;99.90
2012;DHT22;1009;51.436;6.972;2023-11-18T01:30:15;5.10;99.90
2012;DHT22;1009;51.436;6.972;2023-11-18T01:32:48;5.10;99.90
2012;DHT22;1009;51.436;6.972;2023-11-18T01:35:17;5.20;99.90
2012;DHT22;1009;51.436;6.972;2023-11-18T01:37:52;5.20;99.90
2012;DHT22;1009;51.436;6.972;2023-11-18T01:40:23;5.20;99.90
2012;DHT22;1009;51.436;6.972;2023-11-18T01:43:00;5.20;99.90
2012;DHT22;1009;51.436;6.972;2023-11-18T01:45:31;5.20;99.90
2012;DHT22;1009;51.436;6.972;2023-11-18T01:47:59;5.30;99.90
2012;DHT22;1009;51.436;6.972;2023-11-18T01:50:37;5.30;99.90
2012;DHT22;1009;51.436;6.972;2023-11-18T01:53:06;5.20;99.90
2012;DHT22;1009;51.436;6.972;2023-11-18T01:55:39;5.20;99.90
2012;DHT22;1009;51.436;6.972;2023-11-18T01:58:10;5.20;99.90
2012;DHT22;1009;51.436;6.972;2023-11-18T02:00:47;5.20;99.90
2012;DHT22;1009;51.436;6.972;2023-11-18T02:03:19;5.20;99.90
2012;DHT22;1009;51.436;6.972;2023-11-18T02:05:49;5.30;99.90
2012;DHT22;1009;51.436;6.972;2023-11-18T02:08:17;5.30;99.90
2012;DHT22;1009;51.436;6.972;2023-11-18T02:10:47;5.30;99.90
2012;DHT22;1009;51.436;6.972;2023-11-18T02:13:27;5.40;99.90
2012;DHT22;1009;51.436;6.972;2023-11-18T02:16:05;5.40;99.90
2012;DHT22;1009;51.436;6.972;2023-11-18T02:18:33;5.40;99.90
2012;DHT22;1009;51.436;6.972;2023-11-18T02:21:04;5.30;99.90
2012;DHT22;1009;51.436;6.972;2023-11-18T02:23:35;5.40;99.90
2012;DHT22;1009;51.436;6.972;2023-11-18T02:26:06;5.40;99.90
2012;DHT22;1009;51.436;6.972;2023-11-18T02:28:33;5.30;99.90
2012;DHT22;1009;51.436;6.972;2023-11-18T02:31:05;5.40;99.90
2012;DHT22;1009;51.436;6.972;2023-11-18T02:33:40;5.40;99.90
2012;DHT22;1009;51.436;6.972;2023-11-18T02:36:14;5.40;99.90
2012;DHT22;1009;51.436;6.972;2023-11-18T02:42:13;5.30;99.90
2012;DHT22;1009;51.436;6.972;2023-11-18T02:44:43;5.30;99.90
2012;DHT22;1009;51.436;6.972;2023-11-18T02:47:10;5.30;99.90
2012;DHT22;1009;51.436;6.972;2023-11-18T02:49:38;5.30;99.90
2012;DHT22;1009;51.436;6.972;2023-11-18T02:52:09;5.30;99.90
2012;DHT22;1009;51.436;6.972;2023-11-18T02:54:36;5.30;99.90
2012;DHT22;1009;51.436;6.972;2023-11-18T02:57:06;5.30;99.90
2012;DHT22;1009;51.436;6.972;2023-11-18T02:59:39;5.40;99.90
2012;DHT22;1009;51.436;6.972;2023-11-18T03:02:06;5.40;99.90
2012;DHT22;1009;51.436;6.972;2023-11-18T03:04:33;5.40;99.90
2012;DHT22;1009;51.436;6.972;2023-11-18T03:07:01;5.40;99.90
2012;DHT22;1009;51.436;6.972;2023-11-18T03:09:28;5.40;99.90
2012;DHT22;1009;51.436;6.972;2023-11-18T03:11:57;5.40;99.90
2012;DHT22;1009;51.436;6.972;2023-11-18T03:14:25;5.50;99.90
2012;DHT22;1009;51.436;6.972;2023-11-18T03:16:56;5.40;99.90
2012;DHT22;1009;51.436;6.972;2023-11-18T03:19:24;5.40;99.90
2012;DHT22;1009;51.436;6.972;2023-11-18T03:21:51;5.40;99.90
2012;DHT22;1009;51.436;6.972;2023-11-18T03:24:18;5.40;99.90
2012;DHT22;1009;51.436;6.972;2023-11-18T03:26:45;5.40;99.90
2012;DHT22;1009;51.436;6.972;2023-11-18T03:29:12;5.40;99.90
2012;DHT22;1009;51.436;6.972;2023-11-18T03:31:40;5.40;99.90
2012;DHT22;1009;51.436;6.972;2023-11-18T03:34:14;5.40;99.90
2012;DHT22;1009;51.436;6.972;2023-11-18T03:36:44;5.40;99.90
2012;DHT22;1009;51.436;6.972;2023-11-18T03:39:11;5.40;99.90
2012;DHT22;1009;51.436;6.972;2023-11-18T03:41:38;5.40;99.90
2012;DHT22;1009;51.436;6.972;2023-11-18T03:44:05;5.40;99.90
2012;DHT22;1009;51.436;6.972;2023-11-18T03:46:36;5.40;99.90
2012;DHT22;1009;51.436;6.972;2023-11-18T03:49:11;5.50;99.90
2012;DHT22;1009;51.436;6.972;2023-11-18T03:51:53;5.40;99.90
2012;DHT22;1009;51.436;6.972;2023-11-18T03:54:21;5.50;99.90
2012;DHT22;1009;51.436;6.972;2023-11-18T03:56:49;5.40;99.90
2012;DHT22;1009;51.436;6.972;2023-11-18T03:59:17;5.50;99.90
2012;DHT22;1009;51.436;6.972;2023-11-18T04:01:44;5.40;99.90
2012;DHT22;1009;51.436;6.972;2023-11-18T04:04:14;5.40;99.90
2012;DHT22;1009;51.436;6.972;2023-11-18T04:06:45;5.40;99.90
2012;DHT22;1009;51.436;6.972;2023-11-18T04:09:18;5.30;99.90
2012;DHT22;1009;51.436;6.972;2023-11-18T04:11:48;5.40;99.90
2012;DHT22;1009;51.436;6.972;2023-11-18T04:14:22;5.30;99.90
2012;DHT22;1009;51.436;6.972;2023-11-18T04:16:54;5.40;99.90
2012;DHT22;1009;51.436;6.972;2023-11-18T04:19:26;5.40;99.90
2012;DHT22;1009;51.436;6.972;2023-11-18T04:21:55;5.40;99.90
2012;DHT22;1009;51.436;6.972;2023-11-18T04:24:24;5.40;99.90
2012;DHT22;1009;51.436;6.972;2023-11-18T04:26:55;5.40;99.90
2012;DHT22;1009;51.436;6.972;2023-11-18T04:29:23;5.40;99.90
2012;DHT22;1009;51.436;6.972;2023-11-18T04:31:50;5.40;99.90
2012;DHT22;1009;51.436;6.972;2023-11-18T04:34:20;5.40;99.90
2012;DHT22;1009;51.436;6.972;2023-11-18T04:36:50;5.30;99.90
2012;DHT22;1009;51.436;6.972;2023-11-18T04:39:26;5.30;99.90
2012;DHT22;1009;51.436;6.972;2023-11-18T04:41:58;5.40;99.90
2012;DHT22;1009;51.436;6.972;2023-11-18T04:44:29;5.30;99.90
2012;DHT22;1009;51.436;6.972;2023-11-18T04:46:57;5.40;99.90
2012;DHT22;1009;51.436;6.972;2023-11-18T04:49:34;5.40;99.90
2012;DHT22;1009;51.436;6.972;2023-11-18T04:52:01;5.40;99.90
2012;DHT22;1009;51.436;6.972;2023-11-18T04:54:30;5.40;99.90
2012;DHT22;1009;51.436;6.972;2023-11-18T04:56:56;5.30;99.90
2012;DHT22;1009;51.436;6.972;2023-11-18T04:59:26;5.30;99.90
2012;DHT22;1009;51.436;6.972;2023-11-18T05:02:02;5.30;99.90
2012;DHT22;1009;51.436;6.972;2023-11-18T05:04:32;5.30;99.90
2012;DHT22;1009;51.436;6.972;2023-11-18T05:07:02;5.30;99.90
2012;DHT22;1009;51.436;6.972;2023-11-18T05:09:38;5.30;99.90
2012;DHT22;1009;51.436;6.972;2023-11-18T05:12:09;5.30;99.90
2012;DHT22;1009;51.436;6.972;2023-11-18T05:14:37;5.30;99.90
2012;DHT22;1009;51.436;6.972;2023-11-18T05:17:05;5.40;99.90
2012;DHT22;1009;51.436;6.972;2023-11-18T05:19:33;5.40;99.90
2012;DHT22;1009;51.436;6.972;2023-11-18T05:22:01;5.40;99.90
2012;DHT22;1009;51.436;6.972;2023-11-18T05:24:28;5.50;99.90
2012;DHT22;1009;51.436;6.972;2023-11-18T05:26:59;5.40;99.90
2012;DHT22;1009;51.436;6.972;2023-11-18T05:29:32;5.50;99.90
2012;DHT22;1009;51.436;6.972;2023-11-18T05:32:07;5.50;99.90
2012;DHT22;1009;51.436;6.972;2023-11-18T05:34:39;5.50;99.90
2012;DHT22;1009;51.436;6.972;2023-11-18T05:37:06;5.50;99.90
2012;DHT22;1009;51.436;6.972;2023-11-18T05:39:37;5.50;99.90
2012;DHT22;1009;51.436;6.972;2023-11-18T05:42:12;5.60;99.90
2012;DHT22;1009;51.436;6.972;2023-11-18T05:44:48;5.60;99.90
2012;DHT22;1009;51.436;6.972;2023-11-18T05:47:26;5.60;99.90
2012;DHT22;1009;51.436;6.972;2023-11-18T05:49:56;5.60;99.90
2012;DHT22;1009;51.436;6.972;2023-11-18T05:52:25;5.70;99.90
2012;DHT22;1009;51.436;6.972;2023-11-18T05:54:53;5.70;99.90
2012;DHT22;1009;51.436;6.972;2023-11-18T05:57:21;5.70;99.90
2012;DHT22;1009;51.436;6.972;2023-11-18T05:59:49;5.70;99.90
2012;DHT22;1009;51.436;6.972;2023-11-18T06:02:16;5.70;99.90
2012;DHT22;1009;51.436;6.972;2023-11-18T06:04:45;5.80;99.90
2012;DHT22;1009;51.436;6.972;2023-11-18T06:07:12;5.80;99.90
2012;DHT22;1009;51.436;6.972;2023-11-18T06:09:44;5.80;99.90
2012;DHT22;1009;51.436;6.972;2023-11-18T06:12:12;5.80;99.90
2012;DHT22;1009;51.436;6.972;2023-11-18T06:14:42;5.90;99.90
2012;DHT22;1009;51.436;6.972;2023-11-18T06:17:11;5.90;99.90
2012;DHT22;1009;51.436;6.972;2023-11-18T06:19:44;5.90;99.90
2012;DHT22;1009;51.436;6.972;2023-11-18T06:22:13;5.90;99.90
2012;DHT22;1009;51.436;6.972;2023-11-18T06:24:42;6.00;99.90
2012;DHT22;1009;51.436;6.972;2023-11-18T06:27:14;6.00;99.90
2012;DHT22;1009;51.436;6.972;2023-11-18T06:29:44;6.00;99.90
2012;DHT22;1009;51.436;6.972;2023-11-18T06:32:12;6.00;99.90
2012;DHT22;1009;51.436;6.972;2023-11-18T06:34:43;6.00;99.90
2012;DHT22;1009;51.436;6.972;2023-11-18T06:37:11;6.10;99.90
2012;DHT22;1009;51.436;6.972;2023-11-18T06:39:44;6.10;99.90
2012;DHT22;1009;51.436;6.972;2023-11-18T06:42:21;6.10;99.90
2012;DHT22;1009;51.436;6.972;2023-11-18T06:44:52;6.20;99.90
2012;DHT22;1009;51.436;6.972;2023-11-18T06:47:26;6.20;99.90
2012;DHT22;1009;51.436;6.972;2023-11-18T06:50:06;6.20;99.90
2012;DHT22;1009;51.436;6.972;2023-11-18T06:52:40;6.20;99.90
2012;DHT22;1009;51.436;6.972;2023-11-18T06:55:12;6.20;99.90
2012;DHT22;1009;51.436;6.972;2023-11-18T06:57:42;6.30;99.90
2012;DHT22;1009;51.436;6.972;2023-11-18T07:00:14;6.30;99.90
2012;DHT22;1009;51.436;6.972;2023-11-18T07:02:42;6.30;99.90
2012;DHT22;1009;51.436;6.972;2023-11-18T07:05:09;6.40;99.90
2012;DHT22;1009;51.436;6.972;2023-11-18T07:07:37;6.40;99.90
2012;DHT22;1009;51.436;6.972;2023-11-18T07:10:08;6.30;99.90
2012;DHT22;1009;51.436;6.972;2023-11-18T07:12:38;6.30;99.90
2012;DHT22;1009;51.436;6.972;2023-11-18T07:15:11;6.30;99.90
2012;DHT22;1009;51.436;6.972;2023-11-18T07:17:41;6.30;99.90
2012;DHT22;1009;51.436;6.972;2023-11-18T07:20:14;6.30;99.90
2012;DHT22;1009;51.436;6.972;2023-11-18T07:22:42;6.30;99.90
2012;DHT22;1009;51.436;6.972;2023-11-18T07:25:14;6.30;99.90
2012;DHT22;1009;51.436;6.972;2023-11-18T07:27:44;6.30;99.90
2012;DHT22;1009;51.436;6.972;2023-11-18T07:30:14;6.30;99.90
2012;DHT22;1009;51.436;6.972;2023-11-18T07:32:48;6.30;99.90
2012;DHT22;1009;51.436;6.972;2023-11-18T07:35:16;6.30;99.90
2012;DHT22;1009;51.436;6.972;2023-11-18T07:37:51;6.30;99.90
2012;DHT22;1009;51.436;6.972;2023-11-18T07:40:24;6.40;99.90
2012;DHT22;1009;51.436;6.972;2023-11-18T07:42:59;6.50;99.90
2012;DHT22;1009;51.436;6.972;2023-11-18T07:45:37;6.40;99.90
2012;DHT22;1009;51.436;6.972;2023-11-18T07:48:08;6.40;99.90
2012;DHT22;1009;51.436;6.972;2023-11-18T07:50:38;6.40;99.90
2012;DHT22;1009;51.436;6.972;2023-11-18T07:53:08;6.50;99.90
2012;DHT22;1009;51.436;6.972;2023-11-18T07:55:38;6.50;99.90
2012;DHT22;1009;51.436;6.972;2023-11-18T07:58:15;6.50;99.90
2012;DHT22;1009;51.436;6.972;2023-11-18T08:01:00;6.50;99.90
2012;DHT22;1009;51.436;6.972;2023-11-18T08:03:30;6.50;99.90
2012;DHT22;1009;51.436;6.972;2023-11-18T08:06:02;6.50;99.90
2012;DHT22;1009;51.436;6.972;2023-11-18T08:08:38;6.60;99.90
2012;DHT22;1009;51.436;6.972;2023-11-18T08:11:10;6.60;99.90
2012;DHT22;1009;51.436;6.972;2023-11-18T08:13:43;6.60;99.90
2012;DHT22;1009;51.436;6.972;2023-11-18T08:16:17;6.60;99.90
2012;DHT22;1009;51.436;6.972;2023-11-18T08:18:44;6.70;99.90
2012;DHT22;1009;51.436;6.972;2023-11-18T08:21:11;6.70;99.90
2012;DHT22;1009;51.436;6.972;2023-11-18T08:23:39;6.70;99.90
2012;DHT22;1009;51.436;6.972;2023-11-18T08:26:06;6.70;99.90
2012;DHT22;1009;51.436;6.972;2023-11-18T08:28:34;6.80;99.90
2012;DHT22;1009;51.436;6.972;2023-11-18T08:31:01;6.80;99.90
2012;DHT22;1009;51.436;6.972;2023-11-18T08:33:30;6.90;99.90
2012;DHT22;1009;51.436;6.972;2023-11-18T08:35:58;6.90;99.90
2012;DHT22;1009;51.436;6.972;2023-11-18T08:38:27;6.90;99.90
2012;DHT22;1009;51.436;6.972;2023-11-18T08:40:58;6.90;99.90
2012;DHT22;1009;51.436;6.972;2023-11-18T08:43:25;6.90;99.90
2012;DHT22;1009;51.436;6.972;2023-11-18T08:45:54;7.00;99.90
2012;DHT22;1009;51.436;6.972;2023-11-18T08:48:22;7.00;99.90
2012;DHT22;1009;51.436;6.972;2023-11-18T08:50:51;7.00;99.90
2012;DHT22;1009;51.436;6.972;2023-11-18T08:53:19;7.00;99.90
2012;DHT22;1009;51.436;6.972;2023-11-18T08:55:52;7.00;99.90
2012;DHT22;1009;51.436;6.972;2023-11-18T08:58:27;7.00;99.90
2012;DHT22;1009;51.436;6.972;2023-11-18T09:00:59;7.00;99.90
2012;DHT22;1009;51.436;6.972;2023-11-18T09:03:39;7.00;99.90
2012;DHT22;1009;51.436;6.972;2023-11-18T09:06:10;7.10;99.90
2012;DHT22;1009;51.436;6.972;2023-11-18T09:08:44;7.00;99.90
2012;DHT22;1009;51.436;6.972;2023-11-18T09:11:11;7.00;99.90
2012;DHT22;1009;51.436;6.972;2023-11-18T09:13:42;7.00;99.90
2012;DHT22;1009;51.436;6.972;2023-11-18T09:16:11;7.00;99.90
2012;DHT22;1009;51.436;6.972;2023-11-18T09:18:39;7.00;99.90
2012;DHT22;1009;51.436;6.972;2023-11-18T09:21:07;7.10;99.90
2012;DHT22;1009;51.436;6.972;2023-11-18T09:23:41;7.00;99.90
2012;DHT22;1009;51.436;6.972;2023-11-18T09:26:17;7.00;99.90
2012;DHT22;1009;51.436;6.972;2023-11-18T09:28:49;7.00;99.90
2012;DHT22;1009;51.436;6.972;2023-11-18T09:31:18;7.00;99.90
2012;DHT22;1009;51.436;6.972;2023-11-18T09:33:50;7.00;99.90
2012;DHT22;1009;51.436;6.972;2023-11-18T09:36:19;7.00;99.90
2012;DHT22;1009;51.436;6.972;2023-11-18T09:38:49;7.10;99.90
2012;DHT22;1009;51.436;6.972;2023-11-18T09:41:17;7.10;99.90
2012;DHT22;1009;51.436;6.972;2023-11-18T09:43:44;7.10;99.90
2012;DHT22;1009;51.436;6.972;2023-11-18T09:46:13;7.20;99.90
2012;DHT22;1009;51.436;6.972;2023-11-18T09:48:43;7.20;99.90
2012;DHT22;1009;51.436;6.972;2023-11-18T09:51:19;7.30;99.90
2012;DHT22;1009;51.436;6.972;2023-11-18T09:53:50;7.30;99.90
2012;DHT22;1009;51.436;6.972;2023-11-18T09:56:19;7.40;99.90
2012;DHT22;1009;51.436;6.972;2023-11-18T09:59:01;7.40;99.90
2012;DHT22;1009;51.436;6.972;2023-11-18T10:01:35;7.40;99.90
2012;DHT22;1009;51.436;6.972;2023-11-18T10:04:05;7.40;99.90
2012;DHT22;1009;51.436;6.972;2023-11-18T10:06:35;7.50;99.90
2012;DHT22;1009;51.436;6.972;2023-11-18T10:09:03;7.50;99.90
2012;DHT22;1009;51.436;6.972;2023-11-18T10:11:42;7.50;99.90
2012;DHT22;1009;51.436;6.972;2023-11-18T10:14:12;7.50;99.90
2012;DHT22;1009;51.436;6.972;2023-11-18T10:16:41;7.50;99.90
2012;DHT22;1009;51.436;6.972;2023-11-18T10:19:11;7.50;99.90
2012;DHT22;1009;51.436;6.972;2023-11-18T10:21:38;7.60;99.90
2012;DHT22;1009;51.436;6.972;2023-11-18T10:24:07;7.60;99.90
2012;DHT22;1009;51.436;6.972;2023-11-18T10:26:42;7.60;99.90
2012;DHT22;1009;51.436;6.972;2023-11-18T10:29:10;7.60;99.90
2012;DHT22;1009;51.436;6.972;2023-11-18T10:31:38;7.60;99.90
2012;DHT22;1009;51.436;6.972;2023-11-18T10:34:11;7.60;99.90
2012;DHT22;1009;51.436;6.972;2023-11-18T10:36:58;7.70;99.90
2012;DHT22;1009;51.436;6.972;2023-11-18T10:39:29;7.60;99.90
2012;DHT22;1009;51.436;6.972;2023-11-18T10:41:59;7.70;99.90
2012;DHT22;1009;51.436;6.972;2023-11-18T10:44:34;7.70;99.90
2012;DHT22;1009;51.436;6.972;2023-11-18T10:47:10;7.70;99.90
2012;DHT22;1009;51.436;6.972;2023-11-18T10:49:43;7.80;99.90
2012;DHT22;1009;51.436;6.972;2023-11-18T10:52:12;7.80;99.90
2012;DHT22;1009;51.436;6.972;2023-11-18T10:54:50;7.80;99.90
2012;DHT22;1009;51.436;6.972;2023-11-18T10:57:20;7.90;99.90
2012;DHT22;1009;51.436;6.972;2023-11-18T11:00:03;7.90;99.90
2012;DHT22;1009;51.436;6.972;2023-11-18T11:02:40;7.90;99.90
2012;DHT22;1009;51.436;6.972;2023-11-18T11:05:27;7.90;99.90
2012;DHT22;1009;51.436;6.972;2023-11-18T11:07:59;7.90;99.90
2012;DHT22;1009;51.436;6.972;2023-11-18T11:10:28;7.90;99.90
2012;DHT22;1009;51.436;6.972;2023-11-18T11:13:02;7.90;99.90
2012;DHT22;1009;51.436;6.972;2023-11-18T11:15:50;7.90;99.90
2012;DHT22;1009;51.436;6.972;2023-11-18T11:18:21;7.90;99.90
2012;DHT22;1009;51.436;6.972;2023-11-18T11:20:59;7.90;99.90
2012;DHT22;1009;51.436;6.972;2023-11-18T11:23:38;7.90;99.90
2012;DHT22;1009;51.436;6.972;2023-11-18T11:26:18;8.00;99.90
2012;DHT22;1009;51.436;6.972;2023-11-18T11:29:00;8.00;99.90
2012;DHT22;1009;51.436;6.972;2023-11-18T11:31:34;8.00;99.90
2012;DHT22;1009;51.436;6.972;2023-11-18T11:34:04;8.00;99.90
2012;DHT22;1009;51.436;6.972;2023-11-18T11:36:37;8.00;99.90
2012;DHT22;1009;51.436;6.972;2023-11-18T11:39:07;8.00;99.90
2012;DHT22;1009;51.436;6.972;2023-11-18T11:41:44;8.00;99.90
2012;DHT22;1009;51.436;6.972;2023-11-18T11:44:16;8.00;99.90
2012;DHT22;1009;51.436;6.972;2023-11-18T11:46:46;8.00;99.90
2012;DHT22;1009;51.436;6.972;2023-11-18T11:49:19;8.00;99.90
2012;DHT22;1009;51.436;6.972;2023-11-18T11:51:52;8.00;99.90
2012;DHT22;1009;51.436;6.972;2023-11-18T11:54:24;8.00;99.90
2012;DHT22;1009;51.436;6.972;2023-11-18T11:57:05;8.00;99.90
2012;DHT22;1009;51.436;6.972;2023-11-18T11:59:36;8.00;99.90
2012;DHT22;1009;51.436;6.972;2023-11-18T12:02:22;8.10;99.90
2012;DHT22;1009;51.436;6.972;2023-11-18T12:04:53;8.00;99.90
2012;DHT22;1009;51.436;6.972;2023-11-18T12:07:28;8.00;99.90
2012;DHT22;1009;51.436;6.972;2023-11-18T12:09:58;8.00;99.90
2012;DHT22;1009;51.436;6.972;2023-11-18T12:12:28;8.10;99.90
2012;DHT22;1009;51.436;6.972;2023-11-18T12:14:57;8.10;99.90
2012;DHT22;1009;51.436;6.972;2023-11-18T12:18:11;8.10;99.90
2012;DHT22;1009;51.436;6.972;2023-11-18T12:20:43;8.00;99.90
2012;DHT22;1009;51.436;6.972;2023-11-18T12:23:16;8.00;99.90
2012;DHT22;1009;51.436;6.972;2023-11-18T12:25:46;8.00;99.90
2012;DHT22;1009;51.436;6.972;2023-11-18T12:28:18;8.00;99.90
2012;DHT22;1009;51.436;6.972;2023-11-18T12:30:50;8.10;99.90
2012;DHT22;1009;51.436;6.972;2023-11-18T12:33:22;8.00;99.90
2012;DHT22;1009;51.436;6.972;2023-11-18T12:42:09;8.00;99.90
2012;DHT22;1009;51.436;6.972;2023-11-18T12:45:03;8.00;99.90
2012;DHT22;1009;51.436;6.972;2023-11-18T12:47:42;8.00;99.90
2012;DHT22;1009;51.436;6.972;2023-11-18T12:50:12;8.10;99.90
2012;DHT22;1009;51.436;6.972;2023-11-18T12:52:49;8.00;99.90
2012;DHT22;1009;51.436;6.972;2023-11-18T12:55:20;8.00;99.90
2012;DHT22;1009;51.436;6.972;2023-11-18T12:57:47;8.30;99.90
2012;DHT22;1009;51.436;6.972;2023-11-18T13:00:21;8.40;99.90
2012;DHT22;1009;51.436;6.972;2023-11-18T13:02:53;8.40;99.90
2012;DHT22;1009;51.436;6.972;2023-11-18T13:05:22;8.30;99.90
2012;DHT22;1009;51.436;6.972;2023-11-18T13:07:54;8.20;99.90
2012;DHT22;1009;51.436;6.972;2023-11-18T13:10:21;8.20;99.90
2012;DHT22;1009;51.436;6.972;2023-11-18T13:12:52;8.20;99.90
2012;DHT22;1009;51.436;6.972;2023-11-18T13:15:21;8.20;99.90
2012;DHT22;1009;51.436;6.972;2023-11-18T13:18:00;8.20;99.90
2012;DHT22;1009;51.436;6.972;2023-11-18T13:20:28;8.20;99.90
2012;DHT22;1009;51.436;6.972;2023-11-18T13:23:08;8.20;99.90
2012;DHT22;1009;51.436;6.972;2023-11-18T13:25:41;8.20;99.90
2012;DHT22;1009;51.436;6.972;2023-11-18T13:28:08;8.20;99.90
2012;DHT22;1009;51.436;6.972;2023-11-18T13:30:38;8.20;99.90
2012;DHT22;1009;51.436;6.972;2023-11-18T13:33:05;8.20;99.90
2012;DHT22;1009;51.436;6.972;2023-11-18T13:35:33;8.20;99.90
2012;DHT22;1009;51.436;6.972;2023-11-18T13:38:01;8.20;99.90
2012;DHT22;1009;51.436;6.972;2023-11-18T13:40:42;8.20;99.90
2012;DHT22;1009;51.436;6.972;2023-11-18T13:43:14;8.10;99.90
2012;DHT22;1009;51.436;6.972;2023-11-18T13:45:43;8.10;99.90
2012;DHT22;1009;51.436;6.972;2023-11-18T13:48:11;8.10;99.90
2012;DHT22;1009;51.436;6.972;2023-11-18T13:50:40;8.10;99.90
2012;DHT22;1009;51.436;6.972;2023-11-18T13:53:08;8.10;99.90
2012;DHT22;1009;51.436;6.972;2023-11-18T13:55:36;8.10;99.90
2012;DHT22;1009;51.436;6.972;2023-11-18T13:58:05;8.10;99.90
2012;DHT22;1009;51.436;6.972;2023-11-18T14:00:32;8.10;99.90
2012;DHT22;1009;51.436;6.972;2023-11-18T14:03:01;8.10;99.90
2012;DHT22;1009;51.436;6.972;2023-11-18T14:05:35;8.10;99.90
2012;DHT22;1009;51.436;6.972;2023-11-18T14:08:06;8.10;99.90
2012;DHT22;1009;51.436;6.972;2023-11-18T14:10:35;8.10;99.90
2012;DHT22;1009;51.436;6.972;2023-11-18T14:13:05;8.10;99.90
2012;DHT22;1009;51.436;6.972;2023-11-18T14:15:34;8.10;99.90
2012;DHT22;1009;51.436;6.972;2023-11-18T14:18:03;8.10;99.90
2012;DHT22;1009;51.436;6.972;2023-11-18T14:20:33;8.10;99.90
2012;DHT22;1009;51.436;6.972;2023-11-18T14:23:01;8.00;99.90
2012;DHT22;1009;51.436;6.972;2023-11-18T14:25:29;8.10;99.90
2012;DHT22;1009;51.436;6.972;2023-11-18T14:27:58;8.10;99.90
2012;DHT22;1009;51.436;6.972;2023-11-18T14:30:24;8.10;99.90
2012;DHT22;1009;51.436;6.972;2023-11-18T14:32:54;8.00;99.90
2012;DHT22;1009;51.436;6.972;2023-11-18T14:35:23;8.10;99.90
2012;DHT22;1009;51.436;6.972;2023-11-18T14:37:53;8.10;99.90
2012;DHT22;1009;51.436;6.972;2023-11-18T14:40:21;8.10;99.90
2012;DHT22;1009;51.436;6.972;2023-11-18T14:42:49;8.00;99.90
2012;DHT22;1009;51.436;6.972;2023-11-18T14:45:19;8.00;99.90
2012;DHT22;1009;51.436;6.972;2023-11-18T14:47:49;8.00;99.90
2012;DHT22;1009;51.436;6.972;2023-11-18T14:50:22;8.00;99.90
2012;DHT22;1009;51.436;6.972;2023-11-18T14:52:56;8.00;99.90
2012;DHT22;1009;51.436;6.972;2023-11-18T14:55:28;8.00;99.90
2012;DHT22;1009;51.436;6.972;2023-11-18T14:58:04;8.00;99.90
2012;DHT22;1009;51.436;6.972;2023-11-18T15:00:33;7.90;99.90
2012;DHT22;1009;51.436;6.972;2023-11-18T15:03:00;7.90;99.90
2012;DHT22;1009;51.436;6.972;2023-11-18T15:05:28;7.80;99.90
2012;DHT22;1009;51.436;6.972;2023-11-18T15:07:57;7.80;99.90
2012;DHT22;1009;51.436;6.972;2023-11-18T15:10:27;7.70;99.90
2012;DHT22;1009;51.436;6.972;2023-11-18T15:13:01;7.70;99.90
2012;DHT22;1009;51.436;6.972;2023-11-18T15:15:31;7.70;99.90
2012;DHT22;1009;51.436;6.972;2023-11-18T15:18:00;7.70;99.90
2012;DHT22;1009;51.436;6.972;2023-11-18T15:20:30;7.60;99.90
2012;DHT22;1009;51.436;6.972;2023-11-18T15:22:58;7.60;99.90
2012;DHT22;1009;51.436;6.972;2023-11-18T15:25:25;7.60;99.90
2012;DHT22;1009;51.436;6.972;2023-11-18T15:27:54;7.60;99.90
2012;DHT22;1009;51.436;6.972;2023-11-18T15:30:22;7.70;99.90
2012;DHT22;1009;51.436;6.972;2023-11-18T15:32:52;7.70;99.90
2012;DHT22;1009;51.436;6.972;2023-11-18T15:35:22;7.70;99.90
2012;DHT22;1009;51.436;6.972;2023-11-18T15:37:51;7.70;99.90
2012;DHT22;1009;51.436;6.972;2023-11-18T15:40:21;7.70;99.90
2012;DHT22;1009;51.436;6.972;2023-11-18T15:42:51;7.70;99.90
2012;DHT22;1009;51.436;6.972;2023-11-18T15:45:19;7.70;99.90
2012;DHT22;1009;51.436;6.972;2023-11-18T15:47:48;7.70;99.90
2012;DHT22;1009;51.436;6.972;2023-11-18T15:50:16;7.70;99.90
2012;DHT22;1009;51.436;6.972;2023-11-18T15:52:44;7.70;99.90
2012;DHT22;1009;51.436;6.972;2023-11-18T15:55:15;7.70;99.90
2012;DHT22;1009;51.436;6.972;2023-11-18T15:57:48;7.70;99.90
2012;DHT22;1009;51.436;6.972;2023-11-18T16:00:25;7.70;99.90
2012;DHT22;1009;51.436;6.972;2023-11-18T16:02:53;7.70;99.90
2012;DHT22;1009;51.436;6.972;2023-11-18T16:05:23;7.80;99.90
2012;DHT22;1009;51.436;6.972;2023-11-18T16:07:51;7.70;99.90
2012;DHT22;1009;51.436;6.972;2023-11-18T16:10:47;7.70;99.90
2012;DHT22;1009;51.436;6.972;2023-11-18T16:13:14;7.70;99.90
2012;DHT22;1009;51.436;6.972;2023-11-18T16:15:44;7.70;99.90
2012;DHT22;1009;51.436;6.972;2023-11-18T16:18:12;7.70;99.90
2012;DHT22;1009;51.436;6.972;2023-11-18T16:20:39;7.70;99.90
2012;DHT22;1009;51.436;6.972;2023-11-18T16:23:15;7.70;99.90
2012;DHT22;1009;51.436;6.972;2023-11-18T16:25:53;7.70;99.90
2012;DHT22;1009;51.436;6.972;2023-11-18T16:28:27;7.70;99.90
2012;DHT22;1009;51.436;6.972;2023-11-18T16:31:01;7.70;99.90
2012;DHT22;1009;51.436;6.972;2023-11-18T16:33:31;7.70;99.90
2012;DHT22;1009;51.436;6.972;2023-11-18T16:35:59;7.70;99.90
2012;DHT22;1009;51.436;6.972;2023-11-18T16:38:26;7.70;99.90
2012;DHT22;1009;51.436;6.972;2023-11-18T16:41:02;7.70;99.90
2012;DHT22;1009;51.436;6.972;2023-11-18T16:43:32;7.80;99.90
2012;DHT22;1009;51.436;6.972;2023-11-18T16:45:58;7.80;99.90
2012;DHT22;1009;51.436;6.972;2023-11-18T16:48:34;7.70;99.90
2012;DHT22;1009;51.436;6.972;2023-11-18T16:51:01;7.80;99.90